Terminal Aerodrome Forecast
Issued by NWS Bismarck, ND

Home | Current Version | Previous Version | Text Only | Print | Product List | Glossary Off
Versions: 1 2 3 4 5 6 7 8 9 10 11 12 13 14 15 16

000
FTUS43 KBIS 301731
TAFISN
TAF
KISN 301731Z 3018/3118 11015G19KT P6SM SCT050
     FM310000 12014KT P6SM SCT050 OVC100
     FM310600 12010KT P6SM VCSH OVC060
     FM311000 12012KT P6SM -SHRA SCT025 OVC060
      TEMPO 3110/3114 3SM -SHRA SCT015 OVC025
     FM311600 14012KT P6SM SCT015 OVC035=

USA.gov is the U.S. government's official web portal to all federal, state and local government web resources and services.